Time;durP1;ratioP1;P1;durP2;ratioP2;P2;SDS_P1;SDS_P2;PMS_P1;PMS_P2;Temp;Humidity;BMP_temperature;BMP_pressure;BME280_temperature;BME280_humidity;BME280_pressure;Samples;Min_cycle;Max_cycle;Signal;HPM_P1;HPM_P2
2023/08/04 00:00:55;;;;;;;1.60;1.50;;;;;;;17.13;100.00;97226.56;1223099;75;2927326;-67
2023/08/04 00:03:29;;;;;;;1.80;1.40;;;;;;;17.02;100.00;97224.00;1223677;75;2928034;-66
2023/08/04 00:06:01;;;;;;;2.15;1.50;;;;;;;17.07;100.00;97214.84;1223122;75;2920325;-66
2023/08/04 00:08:34;;;;;;;2.85;1.40;;;;;;;17.12;100.00;97227.81;1223503;75;2945898;-68
2023/08/04 00:11:07;;;;;;;2.35;1.60;;;;;;;16.79;100.00;97256.81;1223476;75;2919356;-67
2023/08/04 00:13:40;;;;;;;4.35;2.05;;;;;;;16.59;100.00;97261.59;1223806;75;2931186;-67
2023/08/04 00:16:15;;;;;;;2.85;2.10;;;;;;;16.85;100.00;97246.41;1223333;75;2923836;-68
2023/08/04 00:18:47;;;;;;;2.75;1.45;;;;;;;17.13;100.00;97206.47;1223906;75;2922495;-69
2023/08/04 00:21:20;;;;;;;3.10;2.10;;;;;;;16.72;100.00;97158.63;1220928;75;3062122;-65
2023/08/04 00:23:53;;;;;;;3.40;2.40;;;;;;;16.50;100.00;97131.38;1223337;75;2928696;-66
2023/08/04 00:26:25;;;;;;;3.10;2.25;;;;;;;16.35;100.00;97132.63;1223154;75;2918887;-67
2023/08/04 00:28:58;;;;;;;2.80;1.85;;;;;;;16.68;100.00;97163.00;1223665;75;2926150;-66
2023/08/04 00:31:33;;;;;;;3.15;1.80;;;;;;;16.50;100.00;97217.03;1222305;75;2927289;-68
2023/08/04 00:34:06;;;;;;;3.15;1.90;;;;;;;16.43;100.00;97248.81;1223081;75;2924850;-68
2023/08/04 00:36:38;;;;;;;2.55;1.80;;;;;;;16.50;100.00;97244.66;1223801;75;2929567;-66
2023/08/04 00:39:11;;;;;;;2.40;1.70;;;;;;;16.82;100.00;97222.59;1224199;75;2924813;-67
2023/08/04 00:41:44;;;;;;;2.45;1.65;;;;;;;17.01;100.00;97216.97;1222569;75;2923433;-68
2023/08/04 00:44:16;;;;;;;2.65;1.65;;;;;;;16.93;100.00;97227.94;1223649;75;2920718;-67
2023/08/04 00:46:52;;;;;;;4.00;2.30;;;;;;;16.53;100.00;97257.44;1223582;75;2920941;-68
2023/08/04 00:49:25;;;;;;;3.65;2.20;;;;;;;16.57;100.00;97260.63;1223661;75;2929729;-67
2023/08/04 00:51:58;;;;;;;3.15;2.25;;;;;;;16.74;100.00;97250.06;1223294;75;2933062;-68
2023/08/04 00:54:31;;;;;;;2.70;1.85;;;;;;;16.82;100.00;97217.78;1223870;75;2933608;-67
2023/08/04 00:57:04;;;;;;;3.65;2.45;;;;;;;16.61;100.00;97214.09;1223647;75;2927778;-66
2023/08/04 00:59:37;;;;;;;3.85;2.20;;;;;;;16.59;100.00;97228.44;1223649;75;2929068;-68
2023/08/04 01:02:12;;;;;;;3.40;2.30;;;;;;;16.79;100.00;97232.69;1222667;75;2922164;-67
2023/08/04 01:04:45;;;;;;;3.35;2.00;;;;;;;17.01;100.00;97244.63;1222877;75;2927044;-67
2023/08/04 01:07:26;;;;;;;2.70;1.90;;;;;;;16.79;100.00;97240.97;1224334;75;2923900;-68
2023/08/04 01:10:14;;;;;;;2.90;1.90;;;;;;;16.86;100.00;97233.31;1222758;75;2923826;-69
2023/08/04 01:12:57;;;;;;;2.60;2.10;;;;;;;16.78;100.00;97227.63;1223586;75;2919264;-66
2023/08/04 01:15:30;;;;;;;2.20;1.50;;;;;;;16.98;100.00;97237.38;1222721;75;2924450;-68
2023/08/04 01:18:06;;;;;;;1.20;1.10;;;;;;;17.16;100.00;97250.38;1223199;75;2936627;-69
2023/08/04 01:20:38;;;;;;;2.35;1.35;;;;;;;16.98;100.00;97240.91;1222698;75;2927494;-67
2023/08/04 01:23:14;;;;;;;3.30;1.90;;;;;;;16.73;100.00;97231.25;1223166;75;2921828;-66
2023/08/04 01:25:47;;;;;;;3.60;1.85;;;;;;;16.68;100.00;97232.09;1223206;75;2923187;-67
2023/08/04 01:28:21;;;;;;;2.15;1.80;;;;;;;16.74;100.00;97227.19;1223433;75;2924505;-69
2023/08/04 01:30:58;;;;;;;3.55;1.90;;;;;;;16.62;100.00;97229.44;1221851;75;2929008;-66
2023/08/04 01:33:32;;;;;;;2.00;1.70;;;;;;;16.66;100.00;97218.78;1223384;75;2936491;-66
2023/08/04 01:36:05;;;;;;;3.80;1.75;;;;;;;16.52;100.00;97220.75;1223401;75;2945576;-68
2023/08/04 01:38:40;;;;;;;3.45;1.50;;;;;;;16.80;100.00;97227.88;1224164;75;2928132;-67
2023/08/04 01:41:13;;;;;;;1.80;1.20;;;;;;;16.74;100.00;97238.25;1223762;75;2926120;-67
2023/08/04 01:43:45;;;;;;;2.05;1.30;;;;;;;16.76;100.00;97232.94;1222691;75;2922712;-68
2023/08/04 01:46:18;;;;;;;6.50;1.30;;;;;;;16.76;100.00;97219.91;1223834;75;2924606;-67
2023/08/04 01:48:50;;;;;;;3.70;1.40;;;;;;;16.57;100.00;97221.94;1223035;75;2924470;-67
2023/08/04 01:51:23;;;;;;;1.55;1.20;;;;;;;16.75;100.00;97228.69;1223144;75;2922048;-66
2023/08/04 01:53:58;;;;;;;2.75;1.45;;;;;;;16.60;100.00;97221.66;1223182;75;2926237;-67
2023/08/04 01:56:31;;;;;;;1.65;1.50;;;;;;;16.38;100.00;97208.94;1223466;75;2930238;-66
2023/08/04 01:59:03;;;;;;;1.75;1.20;;;;;;;16.66;100.00;97207.72;1223985;75;2925781;-66
2023/08/04 02:01:36;;;;;;;2.30;1.40;;;;;;;16.79;100.00;97218.84;1222676;75;2931625;-66
2023/08/04 02:04:09;;;;;;;1.95;1.25;;;;;;;16.63;100.00;97222.63;1223589;75;2918690;-69
2023/08/04 02:06:41;;;;;;;4.40;1.50;;;;;;;16.65;100.00;97224.88;1223509;75;2930765;-68
2023/08/04 02:09:16;;;;;;;1.25;1.10;;;;;;;16.83;100.00;97221.28;1223793;75;2928621;-68
2023/08/04 02:11:49;;;;;;;1.50;1.00;;;;;;;16.90;100.00;97239.28;1222591;75;2923017;-68
2023/08/04 02:14:22;;;;;;;1.45;1.20;;;;;;;16.73;100.00;97231.25;1222687;75;2929968;-68
2023/08/04 02:16:54;;;;;;;2.85;1.55;;;;;;;16.42;100.00;97227.97;1223305;75;2926814;-64
2023/08/04 02:19:27;;;;;;;1.95;1.55;;;;;;;16.54;100.00;97239.59;1223650;75;2924294;-67
2023/08/04 02:21:59;;;;;;;1.85;1.25;;;;;;;16.35;100.00;97240.34;1222561;75;2925177;-66
2023/08/04 02:24:34;;;;;;;2.20;1.40;;;;;;;16.64;100.00;97237.16;1223756;75;2925336;-68
2023/08/04 02:27:09;;;;;;;2.20;1.30;;;;;;;16.48;100.00;97233.41;1223744;75;2924988;-69
2023/08/04 02:29:42;;;;;;;2.20;1.70;;;;;;;16.34;100.00;97229.84;1223300;75;2928637;-66
2023/08/04 02:32:14;;;;;;;2.45;1.50;;;;;;;16.30;100.00;97232.91;1223405;75;2922306;-67
2023/08/04 02:34:47;;;;;;;3.00;1.55;;;;;;;16.14;100.00;97236.69;1223651;75;2922467;-66
2023/08/04 02:37:19;;;;;;;2.90;1.50;;;;;;;16.03;100.00;97232.03;1222587;75;2935094;-68
2023/08/04 02:39:54;;;;;;;2.20;1.65;;;;;;;16.01;100.00;97231.81;1223316;75;2945696;-67
2023/08/04 02:42:27;;;;;;;1.95;1.30;;;;;;;16.08;100.00;97239.50;1223408;75;2927440;-67
2023/08/04 02:45:01;;;;;;;2.60;1.10;;;;;;;16.09;100.00;97237.47;1223503;75;2928416;-65
2023/08/04 02:47:33;;;;;;;1.80;1.30;;;;;;;15.98;100.00;97227.34;1224211;75;2866523;-67
2023/08/04 02:50:08;;;;;;;2.25;1.50;;;;;;;16.02;100.00;97238.09;1223392;75;2922830;-69
2023/08/04 02:52:40;;;;;;;2.10;1.40;;;;;;;16.08;100.00;97244.28;1223341;75;2925348;-68
2023/08/04 02:55:16;;;;;;;2.00;1.35;;;;;;;16.06;100.00;97242.03;1223117;75;2929203;-66
2023/08/04 02:57:48;;;;;;;1.85;1.10;;;;;;;16.07;100.00;97243.53;1223454;75;2925668;-68
2023/08/04 03:00:21;;;;;;;3.55;1.40;;;;;;;16.10;100.00;97236.22;1223350;75;2934858;-66
2023/08/04 03:02:54;;;;;;;2.15;1.40;;;;;;;16.30;100.00;97249.47;1222897;75;2924397;-67
2023/08/04 03:05:26;;;;;;;2.00;1.40;;;;;;;16.30;100.00;97251.50;1223252;75;2938698;-67
2023/08/04 03:07:59;;;;;;;4.45;1.20;;;;;;;16.37;100.00;97256.41;1224065;75;2927758;-68
2023/08/04 03:10:34;;;;;;;1.80;1.00;;;;;;;16.47;100.00;97260.28;1223302;75;2925770;-69
2023/08/04 03:13:07;;;;;;;1.00;0.85;;;;;;;16.66;100.00;97251.22;1223650;75;2923747;-66
2023/08/04 03:15:40;;;;;;;1.45;1.05;;;;;;;16.41;100.00;97254.09;1222900;75;2921485;-69
2023/08/04 03:18:12;;;;;;;2.20;1.50;;;;;;;16.14;100.00;97259.50;1222910;75;2934646;-67
2023/08/04 03:20:45;;;;;;;1.55;1.05;;;;;;;16.35;100.00;97286.59;1223089;75;2925346;-68
2023/08/04 03:23:17;;;;;;;1.90;1.00;;;;;;;16.48;100.00;97300.47;1224025;75;2921534;-68
2023/08/04 03:25:53;;;;;;;1.80;1.10;;;;;;;16.35;100.00;97278.28;1224235;75;2926008;-68
2023/08/04 03:28:26;;;;;;;2.90;1.60;;;;;;;16.30;100.00;97255.00;1223648;75;2925388;-68
2023/08/04 03:30:58;;;;;;;0.85;0.70;;;;;;;16.73;100.00;97240.28;1222415;75;2919840;-66
2023/08/04 03:33:31;;;;;;;0.85;0.85;;;;;;;16.81;100.00;97248.72;1223053;75;2927229;-69
2023/08/04 03:36:04;;;;;;;1.30;0.80;;;;;;;16.65;100.00;97267.06;1222639;75;2925194;-70
2023/08/04 03:38:36;;;;;;;1.40;0.95;;;;;;;16.68;100.00;97271.53;1224005;75;2924560;-66
2023/08/04 03:41:11;;;;;;;0.70;0.60;;;;;;;16.80;100.00;97285.94;1223701;75;2919214;-67
2023/08/04 03:43:44;;;;;;;0.65;0.50;;;;;;;16.74;100.00;97288.78;1222388;75;2924683;-68
2023/08/04 03:46:17;;;;;;;0.70;0.65;;;;;;;16.62;100.00;97301.28;1223493;75;2926820;-67
2023/08/04 03:48:49;;;;;;;1.20;0.70;;;;;;;16.45;100.00;97300.75;1223358;75;2924810;-67
2023/08/04 03:51:22;;;;;;;1.15;0.75;;;;;;;16.49;100.00;97295.69;1223176;75;2927680;-68
2023/08/04 03:53:55;;;;;;;1.00;0.80;;;;;;;16.36;100.00;97294.34;1220240;75;3062426;-68
2023/08/04 03:56:30;;;;;;;1.85;1.10;;;;;;;16.40;100.00;97277.47;1223548;75;2921226;-68
2023/08/04 03:59:03;;;;;;;0.70;0.70;;;;;;;16.54;100.00;97265.19;1223775;75;2925645;-67
2023/08/04 04:01:35;;;;;;;1.90;0.90;;;;;;;16.66;100.00;97267.78;1222554;75;2920730;-67
2023/08/04 04:04:08;;;;;;;1.05;0.80;;;;;;;16.59;100.00;97280.94;1223794;75;2924372;-67
2023/08/04 04:06:41;;;;;;;1.00;0.80;;;;;;;16.48;100.00;97272.84;1223056;75;2933108;-68
2023/08/04 04:09:14;;;;;;;1.65;1.00;;;;;;;16.34;100.00;97274.78;1223231;75;2925761;-67
2023/08/04 04:11:49;;;;;;;0.80;0.75;;;;;;;16.30;100.00;97265.31;1223054;75;2928278;-69
2023/08/04 04:14:22;;;;;;;1.40;0.85;;;;;;;16.37;100.00;97270.97;1223733;75;2927054;-67
2023/08/04 04:16:54;;;;;;;2.00;0.95;;;;;;;16.22;100.00;97295.56;1223469;75;2924658;-67
2023/08/04 04:19:27;;;;;;;2.50;1.25;;;;;;;16.22;100.00;97312.13;1222919;75;2925343;-67
2023/08/04 04:22:00;;;;;;;2.30;1.15;;;;;;;16.45;100.00;97306.28;1222106;75;2931060;-68
2023/08/04 04:24:32;;;;;;;2.80;1.30;;;;;;;16.29;100.00;97305.25;1222544;75;2923942;-68
2023/08/04 04:27:08;;;;;;;16.30;13.10;;;;;;;16.07;100.00;97306.31;1221810;75;2947041;-67
2023/08/04 04:29:41;;;;;;;4.50;3.65;;;;;;;16.19;100.00;97322.22;1222931;75;2923755;-65
2023/08/04 04:32:13;;;;;;;3.80;2.30;;;;;;;16.26;100.00;97329.16;1221763;75;2929385;-67
2023/08/04 04:34:49;;;;;;;2.40;1.60;;;;;;;16.31;100.00;97325.56;1222853;75;2923887;-66
2023/08/04 04:37:21;;;;;;;2.90;1.90;;;;;;;16.02;100.00;97329.19;1222710;75;2926279;-65
2023/08/04 04:39:54;;;;;;;6.40;3.85;;;;;;;16.02;100.00;97326.44;1222364;75;2918451;-67
2023/08/04 04:42:29;;;;;;;6.70;5.05;;;;;;;16.05;100.00;97347.50;1223278;75;2924522;-65
2023/08/04 04:45:02;;;;;;;3.45;1.95;;;;;;;16.15;100.00;97356.91;1222542;75;2915573;-67
2023/08/04 04:47:34;;;;;;;2.50;2.00;;;;;;;16.04;100.00;97346.72;1222202;75;2926643;-66
2023/08/04 04:50:08;;;;;;;2.50;1.30;;;;;;;16.14;100.00;97350.66;1222391;75;2921653;-67
2023/08/04 04:52:41;;;;;;;2.20;1.50;;;;;;;16.35;100.00;97350.84;1222636;75;2920713;-67
2023/08/04 04:55:14;;;;;;;3.00;1.50;;;;;;;16.09;100.00;97350.69;1223165;75;2929389;-66
2023/08/04 04:57:49;;;;;;;3.10;1.50;;;;;;;16.22;100.00;97350.06;1223398;75;2925655;-66
2023/08/04 05:00:22;;;;;;;1.20;1.10;;;;;;;16.19;100.00;97355.34;1222485;75;2925656;-68
2023/08/04 05:02:55;;;;;;;2.45;1.50;;;;;;;16.21;100.00;97351.31;1222623;75;2923244;-67
2023/08/04 05:05:27;;;;;;;2.15;1.40;;;;;;;15.98;100.00;97363.38;1222777;75;2924268;-68
2023/08/04 05:08:00;;;;;;;2.65;1.55;;;;;;;15.94;100.00;97370.44;1223633;75;2924318;-66
2023/08/04 05:10:33;;;;;;;2.95;1.75;;;;;;;15.92;100.00;97379.28;1223751;75;2927024;-66
2023/08/04 05:13:08;;;;;;;2.50;1.70;;;;;;;16.09;100.00;97398.41;1223137;75;2928720;-65
2023/08/04 05:15:41;;;;;;;3.60;1.95;;;;;;;15.87;100.00;97415.19;1223310;75;2936200;-69
2023/08/04 05:18:13;;;;;;;33.50;29.85;;;;;;;16.07;100.00;97403.69;1223204;75;2926027;-65
2023/08/04 05:20:47;;;;;;;18.45;16.25;;;;;;;16.03;100.00;97403.22;1223102;75;2919803;-67
2023/08/04 05:23:20;;;;;;;26.60;23.20;;;;;;;16.05;100.00;97395.19;1223855;75;2930019;-67
2023/08/04 05:25:53;;;;;;;11.95;10.70;;;;;;;16.29;100.00;97385.38;1222882;75;2926676;-67
2023/08/04 05:28:32;;;;;;;6.95;6.05;;;;;;;16.26;100.00;97376.13;1223605;75;2923650;-68
2023/08/04 05:31:08;;;;;;;5.60;3.10;;;;;;;16.17;100.00;97359.91;1222697;75;2926459;-67
2023/08/04 05:33:40;;;;;;;3.25;1.70;;;;;;;16.39;100.00;97373.41;1223276;75;2927946;-66
2023/08/04 05:36:13;;;;;;;1.85;1.55;;;;;;;16.55;100.00;97384.78;1222890;75;2926252;-70
2023/08/04 05:38:45;;;;;;;2.60;1.15;;;;;;;16.52;100.00;97386.56;1224156;75;2919370;-67
2023/08/04 05:41:18;;;;;;;1.25;0.90;;;;;;;16.57;100.00;97382.22;1222278;75;2923316;-69
2023/08/04 05:43:53;;;;;;;1.10;0.80;;;;;;;16.67;100.00;97388.88;1222269;75;2927968;-67
2023/08/04 05:46:26;;;;;;;1.35;0.85;;;;;;;16.36;100.00;97391.03;1222859;75;2930098;-71
2023/08/04 05:48:58;;;;;;;1.95;1.20;;;;;;;16.43;100.00;97403.53;1223299;75;2924591;-66
2023/08/04 05:51:31;;;;;;;2.35;1.00;;;;;;;16.48;100.00;97399.94;1222166;75;2927320;-65
2023/08/04 05:54:03;;;;;;;1.40;1.00;;;;;;;16.29;100.00;97402.69;1222707;75;2924461;-68
2023/08/04 05:56:36;;;;;;;1.80;1.05;;;;;;;16.66;100.00;97408.75;1223183;75;2923789;-66
2023/08/04 05:59:11;;;;;;;1.20;0.80;;;;;;;16.77;100.00;97409.34;1222689;75;2924963;-70
2023/08/04 06:01:44;;;;;;;2.20;1.20;;;;;;;16.92;100.00;97395.09;1222498;75;2926643;-66
2023/08/04 06:04:16;;;;;;;1.35;1.20;;;;;;;16.57;100.00;97396.81;1223874;75;2926253;-68
2023/08/04 06:06:49;;;;;;;1.50;0.80;;;;;;;16.46;100.00;97398.97;1223780;75;2925239;-69
2023/08/04 06:09:22;;;;;;;1.30;0.80;;;;;;;16.69;100.00;97402.94;1222362;75;2920000;-67
2023/08/04 06:11:54;;;;;;;1.35;0.80;;;;;;;16.73;100.00;97406.13;1222845;75;2926797;-68
2023/08/04 06:14:29;;;;;;;2.05;1.20;;;;;;;16.73;100.00;97406.13;1223399;75;2921962;-68
2023/08/04 06:17:02;;;;;;;2.40;1.30;;;;;;;16.68;100.00;97409.72;1221818;75;2924173;-68
2023/08/04 06:19:34;;;;;;;2.85;1.25;;;;;;;16.64;100.00;97403.00;1223430;75;2928918;-67
2023/08/04 06:22:07;;;;;;;1.20;0.80;;;;;;;17.07;100.00;97380.78;1221562;75;2925251;-66
2023/08/04 06:24:40;;;;;;;2.25;1.50;;;;;;;16.81;100.00;97373.13;1221208;75;2933579;-67
2023/08/04 06:27:13;;;;;;;1.25;1.05;;;;;;;16.91;100.00;97365.94;1223769;75;2926924;-67
2023/08/04 06:29:48;;;;;;;1.35;1.00;;;;;;;17.07;100.00;97372.47;1223731;75;2922169;-69
2023/08/04 06:32:21;;;;;;;3.20;2.30;;;;;;;16.96;100.00;97387.25;1221223;75;2926459;-70
2023/08/04 06:34:53;;;;;;;4.15;3.40;;;;;;;16.66;100.00;97397.69;1222124;75;2928092;-72
2023/08/04 06:37:26;;;;;;;4.25;2.50;;;;;;;16.72;100.00;97398.38;1218800;75;3281256;-69
2023/08/04 06:39:59;;;;;;;2.65;1.65;;;;;;;16.83;100.00;97395.47;1222998;75;2921629;-66
2023/08/04 06:42:31;;;;;;;1.75;1.50;;;;;;;16.79;100.00;97387.47;1222700;75;2927799;-68
2023/08/04 06:45:08;;;;;;;1.35;1.00;;;;;;;16.78;100.00;97385.22;1223395;75;2922346;-66
2023/08/04 06:47:41;;;;;;;3.25;1.30;;;;;;;16.68;100.00;97386.88;1221347;75;2923686;-69
2023/08/04 06:50:13;;;;;;;3.30;1.30;;;;;;;16.79;100.00;97384.72;1223894;75;2920891;-67
2023/08/04 06:52:46;;;;;;;3.10;1.35;;;;;;;16.58;100.00;97395.53;1223229;75;2923047;-66
2023/08/04 06:55:19;;;;;;;3.95;1.75;;;;;;;16.42;100.00;97396.50;1224284;75;2923379;-71
2023/08/04 06:57:51;;;;;;;2.15;1.05;;;;;;;16.67;100.00;97377.84;1223821;75;2924720;-65
2023/08/04 07:00:27;;;;;;;1.60;1.10;;;;;;;16.83;100.00;97365.06;1223123;75;2922955;-67
2023/08/04 07:02:59;;;;;;;2.65;1.90;;;;;;;16.88;100.00;97380.06;1223939;75;2924314;-70
2023/08/04 07:05:32;;;;;;;2.25;1.50;;;;;;;16.59;100.00;97402.53;1213766;75;3586768;-66
2023/08/04 07:08:05;;;;;;;3.30;2.45;;;;;;;16.60;100.00;97406.81;1222511;75;2921691;-65
2023/08/04 07:10:37;;;;;;;3.15;2.30;;;;;;;16.50;100.00;97402.94;1221374;75;2922199;-69
2023/08/04 07:13:10;;;;;;;2.30;1.40;;;;;;;16.64;100.00;97409.25;1223379;75;2919973;-71
2023/08/04 07:15:56;;;;;;;2.15;1.20;;;;;;;16.58;100.00;97403.09;1222959;83;2932078;-69
2023/08/04 07:18:29;;;;;;;1.35;1.05;;;;;;;16.64;100.00;97412.03;1223576;75;2931368;-68
2023/08/04 07:21:09;;;;;;;1.80;1.10;;;;;;;16.42;100.00;97407.53;1221926;75;2927486;-71
2023/08/04 07:23:43;;;;;;;2.25;1.20;;;;;;;16.45;100.00;97397.47;1223954;75;2926157;-68
2023/08/04 07:26:15;;;;;;;3.50;1.10;;;;;;;16.60;100.00;97409.56;1223505;75;2917878;-67
2023/08/04 07:28:48;;;;;;;2.50;1.20;;;;;;;16.63;100.00;97418.84;1220599;75;3083604;-68
2023/08/04 07:31:24;;;;;;;1.70;1.10;;;;;;;16.54;100.00;97422.72;1222971;75;2933673;-69
2023/08/04 07:33:57;;;;;;;1.95;1.20;;;;;;;16.61;100.00;97413.81;1223362;75;2928660;-69
2023/08/04 07:36:29;;;;;;;2.45;1.05;;;;;;;16.68;100.00;97428.31;1223841;75;2919825;-67
2023/08/04 07:39:02;;;;;;;1.75;1.25;;;;;;;16.61;100.00;97427.63;1223586;75;2925548;-68
2023/08/04 07:41:34;;;;;;;1.65;1.10;;;;;;;16.59;100.00;97418.38;1223630;75;2927004;-69
2023/08/04 07:44:07;;;;;;;2.05;1.10;;;;;;;16.66;100.00;97406.72;1223503;75;2928133;-68
2023/08/04 07:46:43;;;;;;;3.10;1.40;;;;;;;16.80;100.00;97391.72;1224346;75;2922901;-66
2023/08/04 07:49:16;;;;;;;1.55;1.00;;;;;;;17.18;100.00;97390.94;1223577;75;2914456;-68
2023/08/04 07:51:48;;;;;;;1.30;0.80;;;;;;;17.38;100.00;97389.59;1222654;75;2924684;-68
2023/08/04 07:54:21;;;;;;;1.65;1.15;;;;;;;16.90;100.00;97389.31;1223555;75;2927716;-67
2023/08/04 07:56:54;;;;;;;1.45;0.90;;;;;;;16.83;100.00;97392.69;1223563;75;2924885;-68
2023/08/04 07:59:26;;;;;;;1.80;0.90;;;;;;;16.80;100.00;97391.72;1223199;75;2920149;-72
2023/08/04 08:02:01;;;;;;;2.15;1.10;;;;;;;16.84;100.00;97383.16;1223589;75;2923656;-71
2023/08/04 08:04:34;;;;;;;3.60;1.60;;;;;;;17.08;100.00;97381.53;1224127;75;2926520;-68
2023/08/04 08:07:08;;;;;;;1.30;1.20;;;;;;;17.35;100.00;97369.25;1224201;75;2918032;-68
2023/08/04 08:09:40;;;;;;;2.50;1.00;;;;;;;17.12;100.00;97352.28;1223967;75;2926790;-66
2023/08/04 08:12:13;;;;;;;2.65;1.20;;;;;;;17.18;100.00;97344.66;1223511;75;2925691;-69
2023/08/04 08:14:45;;;;;;;0.90;0.80;;;;;;;17.57;100.00;97348.75;1223709;75;2926205;-67
2023/08/04 08:17:22;;;;;;;1.20;0.80;;;;;;;17.51;100.00;97344.59;1223579;75;2925096;-68
2023/08/04 08:19:55;;;;;;;0.90;0.70;;;;;;;17.68;100.00;97342.28;1223420;75;2923004;-70
2023/08/04 08:22:28;;;;;;;0.70;0.65;;;;;;;17.47;100.00;97344.91;1223558;75;2923836;-69
2023/08/04 08:25:01;;;;;;;0.80;0.80;;;;;;;17.61;100.00;97359.53;1223903;75;2931813;-66
2023/08/04 08:27:33;;;;;;;0.55;0.55;;;;;;;17.41;100.00;97358.84;1223398;75;2921112;-67
2023/08/04 08:30:07;;;;;;;1.50;0.65;;;;;;;17.66;100.00;97351.09;1222915;75;2927861;-71
2023/08/04 08:32:42;;;;;;;1.25;0.85;;;;;;;17.44;100.00;97338.41;1223033;75;2925961;-71
2023/08/04 08:35:15;;;;;;;1.60;1.00;;;;;;;17.62;100.00;97352.69;1223323;75;2929589;-68
2023/08/04 08:37:48;;;;;;;0.75;0.60;;;;;;;17.82;100.00;97365.19;1223982;75;2927502;-68
2023/08/04 08:40:23;;;;;;;1.95;1.00;;;;;;;17.38;100.00;97367.47;1223337;75;2925512;-69
2023/08/04 08:42:57;;;;;;;1.00;0.70;;;;;;;17.55;100.00;97361.63;1223659;75;2920632;-68
2023/08/04 08:45:31;;;;;;;0.60;0.55;;;;;;;17.64;100.00;97352.91;1224247;75;2922928;-71
2023/08/04 08:48:07;;;;;;;2.20;0.90;;;;;;;17.40;100.00;97345.53;1223772;75;2923130;-67
2023/08/04 08:50:42;;;;;;;1.35;0.80;;;;;;;17.58;100.00;97352.25;1223455;75;2921280;-67
2023/08/04 08:53:19;;;;;;;1.65;1.10;;;;;;;17.52;100.00;97382.06;1223536;75;2921920;-66
2023/08/04 08:55:53;;;;;;;1.70;1.20;;;;;;;17.36;100.00;97379.03;1224182;75;2925024;-71
2023/08/04 08:58:26;;;;;;;1.80;1.05;;;;;;;17.19;100.00;97375.81;1224071;75;2904659;-68
2023/08/04 09:00:59;;;;;;;1.45;1.00;;;;;;;17.40;100.00;97384.28;1224055;75;2919022;-69
2023/08/04 09:03:37;;;;;;;1.80;1.10;;;;;;;17.24;100.00;97389.56;1224883;75;2917696;-66
2023/08/04 09:06:10;;;;;;;;;;;;;;;17.52;100.00;97387.59;1224864;75;2918724;-67
2023/08/04 09:08:42;;;;;;;1.25;0.90;;;;;;;17.23;100.00;97376.25;1224246;75;2928011;-69
2023/08/04 09:11:16;;;;;;;1.75;1.10;;;;;;;17.40;100.00;97376.72;1223289;75;2956337;-67
2023/08/04 09:13:49;;;;;;;2.10;1.45;;;;;;;17.30;100.00;97381.19;1224386;75;2922018;-67
2023/08/04 09:16:36;;;;;;;3.05;1.45;;;;;;;17.40;100.00;97384.28;1223381;75;2927257;-67
2023/08/04 09:19:14;;;;;;;1.70;1.10;;;;;;;17.29;100.00;97390.00;1224002;75;2923013;-68
2023/08/04 09:21:47;;;;;;;2.30;1.20;;;;;;;17.12;100.00;97391.00;1222922;75;2923516;-67
2023/08/04 09:24:20;;;;;;;2.20;1.40;;;;;;;17.18;100.00;97399.22;1224174;75;2922200;-66
2023/08/04 09:26:52;;;;;;;2.70;1.50;;;;;;;16.89;100.00;97412.72;1223705;75;2927816;-67
2023/08/04 09:29:25;;;;;;;2.40;1.55;;;;;;;16.83;100.00;97401.72;1223830;75;2923549;-68
2023/08/04 09:31:57;;;;;;;1.80;1.40;;;;;;;16.99;100.00;97407.56;1223503;75;2923635;-67
2023/08/04 09:34:33;;;;;;;1.90;1.10;;;;;;;16.97;100.00;97405.31;1223617;75;2923135;-68
2023/08/04 09:37:05;;;;;;;3.70;1.30;;;;;;;17.00;100.00;97395.22;1223701;75;2920039;-68
2023/08/04 09:39:47;;;;;;;1.85;1.30;;;;;;;17.07;100.00;97402.91;1221161;75;3046350;-69
2023/08/04 09:42:21;;;;;;;2.40;1.00;;;;;;;17.34;100.00;97419.59;1222944;75;2920206;-66
2023/08/04 09:44:54;;;;;;;1.30;0.90;;;;;;;17.15;100.00;97425.16;1223790;75;2921653;-66
2023/08/04 09:47:28;;;;;;;2.00;1.20;;;;;;;16.96;100.00;97431.47;1223946;75;2918974;-66
2023/08/04 09:50:04;;;;;;;2.00;1.10;;;;;;;17.18;100.00;97435.94;1222956;75;2927165;-69
2023/08/04 09:52:36;;;;;;;1.55;0.90;;;;;;;17.22;100.00;97439.16;1222104;75;2932250;-67
2023/08/04 09:55:12;;;;;;;1.65;1.00;;;;;;;17.44;100.00;97437.31;1222964;75;2926122;-66
2023/08/04 09:57:44;;;;;;;1.85;1.20;;;;;;;17.25;100.00;97432.56;1223360;75;2926217;-70
2023/08/04 10:00:18;;;;;;;1.15;0.80;;;;;;;17.33;100.00;97438.22;1223652;75;2925288;-67
2023/08/04 10:02:51;;;;;;;0.65;0.65;;;;;;;17.32;100.00;97439.50;1221608;75;2921074;-65
2023/08/04 10:05:27;;;;;;;1.50;1.00;;;;;;;17.30;100.00;97444.81;1222759;75;2925951;-66
2023/08/04 10:08:01;;;;;;;1.55;0.85;;;;;;;17.40;100.00;97448.66;1222648;75;2924469;-66
2023/08/04 10:10:33;;;;;;;1.70;1.30;;;;;;;17.27;100.00;97458.94;1223363;75;2921932;-66
2023/08/04 10:13:07;;;;;;;2.25;1.15;;;;;;;17.10;100.00;97459.19;1223669;75;2923064;-66
2023/08/04 10:15:40;;;;;;;2.15;1.00;;;;;;;17.09;100.00;97466.00;1223712;75;2918217;-69
2023/08/04 10:18:13;;;;;;;2.45;1.20;;;;;;;16.90;100.00;97469.50;1224174;75;2921446;-66
2023/08/04 10:20:48;;;;;;;1.85;1.30;;;;;;;16.90;100.00;97466.75;1222323;75;2922674;-68
2023/08/04 10:23:21;;;;;;;1.50;1.05;;;;;;;16.88;100.00;97469.28;1223839;75;2919710;-67
2023/08/04 10:26:02;;;;;;;3.15;1.50;;;;;;;16.75;100.00;97467.16;1223257;75;2923914;-66
2023/08/04 10:28:35;;;;;;;3.65;1.60;;;;;;;16.72;100.00;97462.69;1222587;75;2921616;-68
2023/08/04 10:31:14;;;;;;;2.80;1.95;;;;;;;16.64;100.00;97463.78;1223109;75;2929343;-65
2023/08/04 10:33:46;;;;;;;2.95;1.65;;;;;;;16.63;100.00;97460.28;1223466;75;2925479;-65
2023/08/04 10:36:22;;;;;;;2.75;1.80;;;;;;;16.61;100.00;97463.56;1222484;75;2924762;-67
2023/08/04 10:39:07;;;;;;;;;;;;;;;;;;;;;
2023/08/04 10:41:41;;;;;;;3.15;1.85;;;;;;;16.83;100.00;97454.25;1222489;75;2924524;-68
2023/08/04 10:44:14;;;;;;;2.45;1.40;;;;;;;16.92;100.00;97450.38;1223910;75;2925742;-66
2023/08/04 10:46:52;;;;;;;3.10;1.30;;;;;;;16.93;100.00;97448.34;1220244;75;3036389;-68
2023/08/04 10:49:24;;;;;;;1.40;1.20;;;;;;;16.86;100.00;97446.97;1221773;75;2919998;-65
2023/08/04 10:52:01;;;;;;;2.30;1.40;;;;;;;16.92;100.00;97446.88;1221942;75;2969086;-67
2023/08/04 10:54:33;;;;;;;1.60;1.20;;;;;;;16.94;100.00;97449.88;1223584;75;2923844;-66
2023/08/04 10:57:07;;;;;;;4.15;2.40;;;;;;;17.11;100.00;97439.31;1222436;75;2928169;-67
2023/08/04 10:59:39;;;;;;;1.35;1.15;;;;;;;17.29;100.00;97440.53;1223629;75;2926405;-67
2023/08/04 11:02:12;;;;;;;1.75;1.20;;;;;;;17.42;100.00;97426.75;1223835;75;2920782;-67
2023/08/04 11:04:45;;;;;;;1.10;0.90;;;;;;;17.42;100.00;97426.75;1223823;75;2925401;-66
2023/08/04 11:07:22;;;;;;;1.45;0.90;;;;;;;17.32;100.00;97427.66;1223718;75;2919581;-67
2023/08/04 11:09:56;;;;;;;0.70;0.60;;;;;;;17.66;100.00;97411.28;1223073;75;2927133;-68
2023/08/04 11:12:29;;;;;;;1.00;0.80;;;;;;;17.46;100.00;97405.06;1223112;75;2921807;-68
2023/08/04 11:15:03;;;;;;;0.75;0.65;;;;;;;17.81;100.00;97403.22;1224193;75;2925372;-69
2023/08/04 11:17:36;;;;;;;1.40;0.85;;;;;;;17.18;100.00;97405.50;1222711;75;2919162;-67
2023/08/04 11:20:14;;;;;;;0.95;0.85;;;;;;;17.42;100.00;97396.31;1223776;75;2922809;-68
2023/08/04 11:22:51;;;;;;;1.55;1.00;;;;;;;17.67;100.00;97396.13;1224723;75;2921701;-69
2023/08/04 11:25:23;;;;;;;0.70;0.60;;;;;;;17.63;100.00;97395.69;1224010;75;2921529;-67
2023/08/04 11:27:56;;;;;;;1.30;0.90;;;;;;;17.47;100.00;97389.19;1223097;75;2930670;-66
2023/08/04 11:30:30;;;;;;;0.75;0.50;;;;;;;17.92;100.00;97376.59;1221916;75;2926030;-68
2023/08/04 11:33:03;;;;;;;2.10;1.20;;;;;;;17.34;100.00;97370.56;1223536;75;2927895;-69
2023/08/04 11:35:35;;;;;;;2.80;1.50;;;;;;;17.27;100.00;97381.47;1223942;75;2924506;-68
2023/08/04 11:38:11;;;;;;;3.25;1.30;;;;;;;17.38;100.00;97408.97;1223311;75;2923902;-67